createdAt,value
2019-06-08T00:00:58.478Z,3.50
2019-06-08T00:03:26.640Z,3.55
2019-06-08T00:05:54.916Z,3.50
2019-06-08T00:08:23.081Z,3.02
2019-06-08T00:10:51.222Z,3.37
2019-06-08T00:13:19.762Z,3.42
2019-06-08T00:15:48.209Z,4.42
2019-06-08T00:18:17.372Z,3.33
2019-06-08T00:20:45.718Z,3.60
2019-06-08T00:23:15.741Z,3.30
2019-06-08T00:25:44.046Z,2.90
2019-06-08T00:28:12.205Z,2.90
2019-06-08T00:30:41.487Z,2.80
2019-06-08T00:33:10.164Z,3.85
2019-06-08T00:35:38.274Z,4.47
2019-06-08T00:38:06.656Z,3.40
2019-06-08T00:40:35.306Z,3.27
2019-06-08T00:43:03.520Z,3.72
2019-06-08T00:45:32.959Z,2.90
2019-06-08T00:48:01.142Z,2.52
2019-06-08T00:50:29.561Z,2.50
2019-06-08T00:52:57.719Z,3.20
2019-06-08T00:55:25.989Z,3.25
2019-06-08T00:57:54.111Z,2.83
2019-06-08T01:00:22.649Z,2.60
2019-06-08T01:02:50.978Z,2.67
2019-06-08T01:05:20.089Z,2.87
2019-06-08T01:07:48.216Z,2.85
2019-06-08T01:10:16.572Z,2.85
2019-06-08T01:12:44.777Z,2.50
2019-06-08T01:15:13.079Z,2.67
2019-06-08T01:17:41.253Z,2.42
2019-06-08T01:20:09.410Z,2.50
2019-06-08T01:22:37.579Z,2.50
2019-06-08T01:25:05.921Z,2.20
2019-06-08T01:27:34.026Z,2.40
2019-06-08T01:30:02.273Z,2.65
2019-06-08T01:32:32.170Z,2.50
2019-06-08T01:35:00.466Z,2.98
2019-06-08T01:37:29.102Z,2.17
2019-06-08T01:39:57.543Z,2.70
2019-06-08T01:42:25.805Z,2.47
2019-06-08T01:44:54.103Z,2.65
2019-06-08T01:47:22.350Z,2.10
2019-06-08T01:49:50.458Z,2.00
2019-06-08T01:52:18.671Z,2.20
2019-06-08T01:54:46.893Z,2.37
2019-06-08T01:57:15.202Z,2.42
2019-06-08T01:59:44.575Z,2.20
2019-06-08T02:02:12.778Z,2.27
2019-06-08T02:04:40.966Z,2.20
2019-06-08T02:07:09.132Z,1.97
2019-06-08T02:09:37.388Z,2.00
2019-06-08T02:12:05.583Z,2.27
2019-06-08T02:14:35.307Z,2.55
2019-06-08T02:17:03.928Z,2.62
2019-06-08T02:19:32.706Z,2.30
2019-06-08T02:22:01.183Z,2.25
2019-06-08T02:24:29.363Z,2.45
2019-06-08T02:26:57.701Z,2.67
2019-06-08T02:29:25.986Z,2.00
2019-06-08T02:31:54.331Z,2.37
2019-06-08T02:34:22.634Z,2.92
2019-06-08T02:36:52.422Z,3.00
2019-06-08T02:39:20.662Z,3.52
2019-06-08T02:41:48.780Z,2.92
2019-06-08T02:44:17.043Z,2.80
2019-06-08T02:46:45.214Z,3.35
2019-06-08T02:49:13.439Z,3.30
2019-06-08T02:51:42.741Z,4.25
2019-06-08T02:54:11.643Z,5.28
2019-06-08T02:56:41.239Z,7.85
2019-06-08T02:59:11.323Z,5.37
2019-06-08T03:01:40.767Z,6.33
2019-06-08T03:04:09.199Z,7.03
2019-06-08T03:06:39.455Z,7.33
2019-06-08T03:09:08.469Z,5.62
2019-06-08T03:11:37.052Z,3.95
2019-06-08T03:14:06.212Z,4.30
2019-06-08T03:16:35.882Z,6.35
2019-06-08T03:19:21.050Z,4.65
2019-06-08T03:21:36.825Z,5.30
2019-06-08T03:24:05.990Z,5.10
2019-06-08T03:26:34.367Z,7.72
2019-06-08T03:29:02.638Z,4.92
2019-06-08T03:31:30.922Z,3.60
2019-06-08T03:33:59.219Z,4.25
2019-06-08T03:36:27.377Z,5.28
2019-06-08T03:38:55.639Z,3.87
2019-06-08T03:41:23.821Z,3.10
2019-06-08T03:43:52.477Z,2.92
2019-06-08T03:46:20.705Z,2.87
2019-06-08T03:48:48.865Z,4.22
2019-06-08T03:51:16.999Z,3.42
2019-06-08T03:53:47.339Z,3.67
2019-06-08T03:56:16.475Z,3.05
2019-06-08T03:58:46.095Z,3.37
2019-06-08T04:01:14.600Z,3.55
2019-06-08T04:03:43.898Z,3.95
2019-06-08T04:06:12.422Z,3.83
2019-06-08T04:08:42.350Z,3.75
2019-06-08T04:11:10.564Z,3.00
2019-06-08T04:13:39.912Z,3.45
2019-06-08T04:16:08.454Z,3.12
2019-06-08T04:18:38.029Z,3.50
2019-06-08T04:21:06.401Z,3.22
2019-06-08T04:23:34.589Z,4.60
2019-06-08T04:26:02.900Z,4.60
2019-06-08T04:28:31.098Z,3.17
2019-06-08T04:30:59.261Z,3.45
2019-06-08T04:33:27.447Z,3.95
2019-06-08T04:35:55.615Z,4.08
2019-06-08T04:38:23.776Z,3.83
2019-06-08T04:40:52.050Z,3.72
2019-06-08T04:43:20.161Z,4.37
2019-06-08T04:45:49.973Z,4.30
2019-06-08T04:48:18.371Z,4.00
2019-06-08T04:50:48.045Z,4.62
2019-06-08T04:53:16.478Z,4.10
2019-06-08T04:55:45.136Z,3.52
2019-06-08T04:58:14.024Z,3.80
2019-06-08T05:00:43.946Z,4.15
2019-06-08T05:03:12.144Z,4.33
2019-06-08T05:05:41.109Z,4.03
2019-06-08T05:08:09.529Z,3.98
2019-06-08T05:10:39.070Z,4.80
2019-06-08T05:13:07.465Z,4.10
2019-06-08T05:15:35.670Z,4.35
2019-06-08T05:18:03.901Z,4.78
2019-06-08T05:20:38.958Z,4.65
2019-06-08T05:23:04.704Z,3.35
2019-06-08T05:25:33.010Z,3.92
2019-06-08T05:28:01.306Z,3.65
2019-06-08T05:30:29.573Z,3.92
2019-06-08T05:32:58.132Z,5.47
2019-06-08T05:35:26.397Z,3.87
2019-06-08T05:37:54.671Z,5.08
2019-06-08T05:40:22.913Z,4.97
2019-06-08T05:42:51.013Z,5.15
2019-06-08T05:45:19.285Z,3.60
2019-06-08T05:47:47.965Z,4.08
2019-06-08T05:50:16.569Z,3.80
2019-06-08T05:52:45.813Z,3.40
2019-06-08T05:55:14.529Z,2.95
2019-06-08T05:57:42.645Z,3.45
2019-06-08T06:00:11.162Z,3.33
2019-06-08T06:02:40.193Z,3.25
2019-06-08T06:05:08.821Z,3.17
2019-06-08T06:07:37.068Z,3.40
2019-06-08T06:10:05.622Z,3.15
2019-06-08T06:12:33.917Z,3.55
2019-06-08T06:15:02.333Z,3.37
2019-06-08T06:17:30.623Z,3.35
2019-06-08T06:19:58.911Z,3.12
2019-06-08T06:22:27.787Z,3.33
2019-06-08T06:24:56.993Z,3.47
2019-06-08T06:27:25.160Z,3.20
2019-06-08T06:29:53.676Z,3.12
2019-06-08T06:32:21.955Z,3.45
2019-06-08T06:34:50.214Z,3.33
2019-06-08T06:37:18.519Z,2.98
2019-06-08T06:39:48.053Z,3.20
2019-06-08T06:42:16.655Z,3.27
2019-06-08T06:44:45.720Z,3.05
2019-06-08T06:47:15.057Z,2.98
2019-06-08T06:49:44.519Z,3.20
2019-06-08T06:52:13.001Z,3.05
2019-06-08T06:54:42.679Z,2.80
2019-06-08T06:57:11.163Z,3.20
2019-06-08T06:59:39.463Z,2.40
2019-06-08T07:02:07.685Z,2.60
2019-06-08T07:04:35.955Z,3.20
2019-06-08T07:07:04.208Z,2.80
2019-06-08T07:09:32.545Z,3.65
2019-06-08T07:12:00.753Z,2.98
2019-06-08T07:14:28.918Z,3.83
2019-06-08T07:16:58.235Z,3.67
2019-06-08T07:19:26.783Z,3.50
2019-06-08T07:21:54.906Z,4.03
2019-06-08T07:24:23.122Z,4.20
2019-06-08T07:26:52.453Z,3.60
2019-06-08T07:29:20.670Z,3.58
2019-06-08T07:31:50.338Z,3.47
2019-06-08T07:34:20.779Z,3.52
2019-06-08T07:36:49.751Z,3.45
2019-06-08T07:39:18.423Z,3.15
2019-06-08T07:41:47.435Z,3.65
2019-06-08T07:44:16.537Z,3.20
2019-06-08T07:46:44.693Z,3.50
2019-06-08T07:49:12.934Z,3.50
2019-06-08T07:51:57.285Z,3.42
2019-06-08T07:54:11.282Z,3.12
2019-06-08T07:56:39.450Z,4.50
2019-06-08T07:59:07.734Z,3.90
2019-06-08T08:01:36.754Z,4.00
2019-06-08T08:04:05.193Z,3.65
2019-06-08T08:06:33.426Z,3.75
2019-06-08T08:09:01.638Z,4.10
2019-06-08T08:11:31.638Z,5.08
2019-06-08T08:13:59.809Z,3.50
2019-06-08T08:16:27.976Z,3.15
2019-06-08T08:19:15.539Z,3.72
2019-06-08T08:21:43.861Z,3.80
2019-06-08T08:24:12.165Z,5.08
2019-06-08T08:26:40.560Z,4.45
2019-06-08T08:29:08.857Z,4.53
2019-06-08T08:31:37.483Z,3.40
2019-06-08T08:34:06.741Z,4.78
2019-06-08T08:36:39.099Z,3.72
2019-06-08T08:39:08.420Z,3.33
2019-06-08T08:41:57.252Z,3.67
2019-06-08T08:44:28.336Z,3.20
2019-06-08T08:47:02.764Z,3.58
2019-06-08T08:49:33.911Z,3.60
2019-06-08T08:52:03.591Z,4.10
2019-06-08T08:54:37.717Z,3.33
2019-06-08T08:57:08.527Z,3.83
2019-06-08T08:59:38.234Z,3.90
2019-06-08T09:02:10.924Z,3.90
2019-06-08T09:04:38.089Z,3.83
2019-06-08T09:07:10.401Z,3.77
2019-06-08T09:09:38.685Z,3.98
2019-06-08T09:12:08.306Z,3.52
2019-06-08T09:14:38.739Z,3.17
2019-06-08T09:17:08.523Z,3.52
2019-06-08T09:19:38.299Z,3.22
2019-06-08T09:22:08.607Z,3.63
2019-06-08T09:24:39.005Z,3.17
2019-06-08T09:27:08.036Z,3.58
2019-06-08T09:29:38.794Z,2.90
2019-06-08T09:32:08.220Z,3.05
2019-06-08T09:34:38.663Z,3.33
2019-06-08T09:37:08.210Z,3.15
2019-06-08T09:39:38.599Z,3.60
2019-06-08T09:42:08.815Z,2.87
2019-06-08T09:44:37.738Z,3.80
2019-06-08T09:47:12.126Z,3.22
2019-06-08T09:49:37.769Z,3.12
2019-06-08T09:52:08.562Z,3.02
2019-06-08T09:54:38.443Z,3.45
2019-06-08T09:57:09.061Z,3.45
2019-06-08T09:59:39.335Z,3.83
2019-06-08T10:02:12.516Z,2.80
2019-06-08T10:04:38.853Z,3.20
2019-06-08T10:07:08.883Z,3.67
2019-06-08T10:09:38.121Z,3.42
2019-06-08T10:12:09.767Z,2.77
2019-06-08T10:14:37.987Z,3.40
2019-06-08T10:17:08.695Z,4.35
2019-06-08T10:19:36.674Z,3.35
2019-06-08T10:22:05.189Z,3.98
2019-06-08T10:24:33.446Z,4.00
2019-06-08T10:27:03.397Z,3.80
2019-06-08T10:29:31.610Z,4.03
2019-06-08T10:31:59.930Z,3.98
2019-06-08T10:34:29.698Z,3.15
2019-06-08T10:36:58.888Z,3.02
2019-06-08T10:39:28.546Z,3.33
